createdAt,value
2023-02-20T00:05:00.150Z,100.00
2023-02-20T00:10:03.250Z,100.00
2023-02-20T00:15:05.241Z,100.00
2023-02-20T00:20:08.079Z,100.00
2023-02-20T00:25:11.450Z,100.00
2023-02-20T00:30:17.082Z,100.00
2023-02-20T00:35:19.551Z,100.00
2023-02-20T00:40:24.643Z,100.00
2023-02-20T00:45:26.195Z,100.00
2023-02-20T00:50:27.684Z,100.00
2023-02-20T00:55:30.647Z,100.00
2023-02-20T01:00:32.212Z,100.00
2023-02-20T01:05:33.677Z,100.00
2023-02-20T01:10:36.585Z,100.00
2023-02-20T01:15:38.081Z,100.00
2023-02-20T01:20:39.538Z,100.00
2023-02-20T01:25:42.534Z,100.00
2023-02-20T01:30:44.008Z,100.00
2023-02-20T01:35:45.477Z,100.00
2023-02-20T01:40:49.329Z,100.00
2023-02-20T01:45:50.989Z,100.00
2023-02-20T01:50:59.171Z,100.00
2023-02-20T01:56:08.191Z,100.00
2023-02-20T02:01:11.445Z,100.00
2023-02-20T02:06:14.895Z,100.00
2023-02-20T02:11:20.914Z,100.00
2023-02-20T02:16:29.994Z,100.00
2023-02-20T02:22:05.429Z,100.00
2023-02-20T02:27:47.919Z,100.00
2023-02-20T02:33:03.521Z,100.00
2023-02-20T02:38:17.839Z,100.00
2023-02-20T02:43:27.549Z,100.00
2023-02-20T02:48:35.464Z,100.00
2023-02-20T02:53:38.386Z,100.00
2023-02-20T02:58:39.960Z,100.00
2023-02-20T03:03:44.497Z,100.00
2023-02-20T03:08:54.089Z,100.00
2023-02-20T03:14:02.398Z,100.00
2023-02-20T03:19:08.519Z,100.00
2023-02-20T03:24:14.359Z,100.00
2023-02-20T03:29:21.487Z,100.00
2023-02-20T03:34:27.163Z,100.00
2023-02-20T03:39:32.789Z,100.00
2023-02-20T03:44:35.783Z,100.00
2023-02-20T03:49:41.235Z,100.00
2023-02-20T03:54:44.356Z,100.00
2023-02-20T03:59:50.020Z,100.00
2023-02-20T04:04:55.344Z,100.00
2023-02-20T04:10:02.300Z,100.00
2023-02-20T04:15:06.287Z,100.00
2023-02-20T04:20:09.050Z,100.00
2023-02-20T04:25:17.928Z,100.00
2023-02-20T04:30:19.532Z,100.00
2023-02-20T04:35:22.092Z,100.00
2023-02-20T04:40:25.368Z,100.00
2023-02-20T04:45:27.212Z,100.00
2023-02-20T04:50:31.599Z,100.00
2023-02-20T04:55:34.429Z,100.00
2023-02-20T05:00:35.904Z,100.00
2023-02-20T05:05:37.419Z,100.00
2023-02-20T05:10:40.291Z,100.00
2023-02-20T05:15:41.793Z,100.00
2023-02-20T05:20:43.373Z,100.00
2023-02-20T05:25:46.285Z,100.00
2023-02-20T05:30:48.015Z,100.00
2023-02-20T05:35:49.590Z,100.00
2023-02-20T05:40:52.431Z,100.00
2023-02-20T05:45:53.964Z,100.00
2023-02-20T05:50:55.525Z,100.00
2023-02-20T05:55:58.968Z,100.00
2023-02-20T06:01:00.465Z,100.00
2023-02-20T06:06:02.004Z,100.00
2023-02-20T06:11:04.972Z,100.00
2023-02-20T06:16:07.111Z,100.00
2023-02-20T06:21:09.133Z,100.00
2023-02-20T06:26:13.244Z,100.00
2023-02-20T06:31:21.485Z,100.00
2023-02-20T06:36:25.806Z,100.00
2023-02-20T06:41:28.729Z,100.00
2023-02-20T06:46:30.342Z,100.00
2023-02-20T06:51:34.089Z,100.00
2023-02-20T06:56:36.999Z,100.00
2023-02-20T07:01:40.762Z,100.00
2023-02-20T07:06:42.363Z,100.00
2023-02-20T07:11:45.223Z,100.00
2023-02-20T07:16:46.764Z,99.42
2023-02-20T07:21:48.303Z,98.77
2023-02-20T07:26:51.088Z,98.45
2023-02-20T07:31:52.764Z,96.74
2023-02-20T07:36:54.460Z,95.85
2023-02-20T07:41:57.371Z,94.90
2023-02-20T07:46:59.118Z,94.36
2023-02-20T07:52:00.714Z,93.56
2023-02-20T07:57:03.759Z,92.23
2023-02-20T08:02:05.312Z,91.09
2023-02-20T08:07:06.874Z,89.81
2023-02-20T08:12:09.760Z,88.14
2023-02-20T08:17:11.303Z,87.01
2023-02-20T08:22:12.765Z,84.78
2023-02-20T08:27:15.564Z,85.09
2023-02-20T08:32:17.343Z,85.13
2023-02-20T08:37:18.948Z,85.04
2023-02-20T08:42:21.895Z,83.40
2023-02-20T08:47:23.426Z,81.89
2023-02-20T08:52:25.267Z,81.00
2023-02-20T08:57:28.098Z,79.08
2023-02-20T09:02:29.654Z,78.67
2023-02-20T09:07:31.307Z,78.07
2023-02-20T09:12:34.140Z,77.69
2023-02-20T09:17:35.721Z,77.37
2023-02-20T09:22:37.591Z,76.79
2023-02-20T09:27:40.426Z,74.15
2023-02-20T09:32:42.011Z,73.82
2023-02-20T09:37:43.536Z,73.77
2023-02-20T09:42:59.110Z,71.36
2023-02-20T09:48:11.241Z,69.35
2023-02-20T09:53:22.143Z,68.71
2023-02-20T09:58:28.866Z,65.83
2023-02-20T10:03:34.427Z,65.50
2023-02-20T10:08:35.961Z,64.95
2023-02-20T10:13:50.248Z,62.19
2023-02-20T10:19:03.864Z,63.55
2023-02-20T10:24:28.781Z,61.51
2023-02-20T10:29:35.720Z,63.28
2023-02-20T10:34:42.687Z,57.95
2023-02-20T10:39:50.580Z,61.67
2023-02-20T10:45:01.147Z,59.32
2023-02-20T10:50:07.902Z,59.54
2023-02-20T10:55:14.936Z,58.27
2023-02-20T11:00:23.337Z,59.72
2023-02-20T11:05:32.672Z,59.01
2023-02-20T11:10:35.670Z,56.76
2023-02-20T11:15:38.743Z,58.34
2023-02-20T11:20:45.808Z,56.79
2023-02-20T11:25:47.365Z,57.37
2023-02-20T11:31:00.831Z,53.16
2023-02-20T11:36:12.183Z,53.51
2023-02-20T11:41:26.213Z,50.60
2023-02-20T11:46:29.124Z,51.02
2023-02-20T11:51:36.920Z,49.56
2023-02-20T11:56:38.273Z,53.71
2023-02-20T12:01:43.320Z,49.66
2023-02-20T12:06:47.030Z,49.32
2023-02-20T12:11:51.399Z,52.71
2023-02-20T12:17:19.139Z,49.43
2023-02-20T12:22:30.174Z,49.33
2023-02-20T12:27:46.637Z,49.54
2023-02-20T12:32:59.615Z,47.30
2023-02-20T12:38:25.459Z,46.96
2023-02-20T12:43:39.632Z,47.81
2023-02-20T12:49:02.361Z,45.55
2023-02-20T12:54:21.516Z,45.09
2023-02-20T12:59:28.564Z,46.76
2023-02-20T13:04:38.909Z,44.48
2023-02-20T13:09:45.958Z,42.24
2023-02-20T13:15:02.645Z,42.60
2023-02-20T13:20:14.896Z,43.69
2023-02-20T13:25:47.126Z,41.27
2023-02-20T13:31:07.489Z,46.32
2023-02-20T13:36:34.357Z,42.41
2023-02-20T13:41:58.158Z,45.31
2023-02-20T13:47:01.085Z,39.64
2023-02-20T13:52:31.260Z,42.20
2023-02-20T13:57:33.936Z,39.02
2023-02-20T14:02:40.911Z,37.70
2023-02-20T14:07:46.373Z,35.90
2023-02-20T14:12:55.183Z,36.85
2023-02-20T14:17:57.888Z,34.74
2023-02-20T14:23:18.284Z,34.49
2023-02-20T14:28:19.899Z,34.94
2023-02-20T14:33:28.433Z,38.59
2023-02-20T14:38:51.560Z,33.91
2023-02-20T14:43:58.251Z,37.40
2023-02-20T14:49:08.398Z,37.28
2023-02-20T14:54:19.909Z,36.94
2023-02-20T14:59:26.680Z,35.42
2023-02-20T15:04:29.177Z,36.96
2023-02-20T15:09:41.183Z,36.98
2023-02-20T15:14:43.661Z,35.92
2023-02-20T15:19:45.187Z,35.30
2023-02-20T15:24:48.546Z,33.65
2023-02-20T15:30:09.419Z,33.43
2023-02-20T15:35:15.379Z,36.98
2023-02-20T15:40:22.621Z,36.61
2023-02-20T15:45:24.789Z,35.17
2023-02-20T15:50:26.479Z,38.18
2023-02-20T15:55:32.999Z,37.72
2023-02-20T16:00:34.501Z,38.65
2023-02-20T16:05:35.984Z,39.24
2023-02-20T16:10:39.149Z,40.47
2023-02-20T16:15:40.699Z,39.57
2023-02-20T16:20:42.316Z,39.66
2023-02-20T16:25:45.430Z,38.43
2023-02-20T16:30:47.008Z,38.96
2023-02-20T16:35:50.664Z,40.96
2023-02-20T16:40:53.571Z,40.97
2023-02-20T16:45:55.103Z,40.23
2023-02-20T16:50:56.596Z,39.94
2023-02-20T16:55:59.512Z,40.83
2023-02-20T17:01:01.135Z,40.75
2023-02-20T17:06:02.648Z,41.08
2023-02-20T17:11:06.695Z,40.65
2023-02-20T17:16:08.238Z,39.98
2023-02-20T17:21:10.241Z,39.78
2023-02-20T17:26:13.957Z,40.59
2023-02-20T17:31:15.844Z,41.19
2023-02-20T17:36:17.537Z,41.87
2023-02-20T17:41:20.412Z,42.39
2023-02-20T17:46:22.140Z,42.73
2023-02-20T17:51:23.758Z,43.04
2023-02-20T17:56:26.695Z,43.41
2023-02-20T18:01:28.316Z,44.39
2023-02-20T18:06:30.160Z,44.56
2023-02-20T18:11:33.626Z,46.44
2023-02-20T18:16:41.464Z,46.26
2023-02-20T18:21:48.513Z,45.94
2023-02-20T18:26:53.686Z,46.02
2023-02-20T18:31:55.629Z,45.96
2023-02-20T18:36:57.271Z,46.41
2023-02-20T18:42:00.118Z,46.56
2023-02-20T18:47:01.779Z,47.81
2023-02-20T18:52:03.523Z,47.48
2023-02-20T18:57:06.371Z,47.94
2023-02-20T19:02:12.083Z,47.38
2023-02-20T19:12:40.726Z,47.43
2023-02-20T19:17:44.731Z,46.94
2023-02-20T19:22:46.751Z,46.46
2023-02-20T19:27:49.564Z,46.84
2023-02-20T19:32:51.050Z,46.92
2023-02-20T19:37:52.642Z,46.55
2023-02-20T19:42:55.558Z,46.19
2023-02-20T19:47:57.018Z,47.74
2023-02-20T19:52:59.693Z,47.10
2023-02-20T19:58:02.676Z,47.71
2023-02-20T20:03:05.622Z,46.50
2023-02-20T20:08:07.195Z,46.27
2023-02-20T20:13:10.064Z,47.54
2023-02-20T20:18:11.863Z,47.58
2023-02-20T20:23:13.580Z,47.96
2023-02-20T20:28:16.525Z,47.36
2023-02-20T20:33:18.860Z,47.69
2023-02-20T20:38:20.422Z,47.57
2023-02-20T20:43:23.309Z,47.04
2023-02-20T20:48:24.809Z,47.65
2023-02-20T20:53:26.374Z,48.33
2023-02-20T20:58:29.238Z,48.04
2023-02-20T21:03:30.811Z,47.76
2023-02-20T21:08:32.357Z,45.87
2023-02-20T21:13:35.291Z,46.79
2023-02-20T21:18:36.847Z,46.60
2023-02-20T21:23:40.051Z,46.84
2023-02-20T21:28:43.048Z,47.64
2023-02-20T21:33:44.564Z,47.60
2023-02-20T21:38:46.286Z,47.70
2023-02-20T21:43:49.126Z,47.53
2023-02-20T21:48:50.631Z,48.40
2023-02-20T21:53:52.205Z,48.19
2023-02-20T21:58:55.026Z,50.46
2023-02-20T22:03:56.718Z,50.70
2023-02-20T22:08:58.350Z,51.39
2023-02-20T22:14:01.214Z,50.96
2023-02-20T22:19:02.806Z,50.65
2023-02-20T22:24:04.900Z,52.10
2023-02-20T22:29:07.755Z,52.83
2023-02-20T22:34:09.316Z,52.10
2023-02-20T22:39:11.906Z,53.17
2023-02-20T22:44:14.804Z,53.14
2023-02-20T22:49:16.380Z,53.88
2023-02-20T22:54:21.753Z,54.23
2023-02-20T22:59:24.625Z,54.86
2023-02-20T23:04:26.092Z,55.07
2023-02-20T23:09:27.587Z,54.48
2023-02-20T23:14:30.494Z,55.46
2023-02-20T23:19:32.059Z,57.08
2023-02-20T23:24:33.499Z,56.63
2023-02-20T23:29:36.471Z,55.36
2023-02-20T23:34:37.991Z,53.39
2023-02-20T23:39:39.528Z,52.75
2023-02-20T23:44:42.339Z,52.24
2023-02-20T23:49:44.263Z,51.98
2023-02-20T23:54:45.793Z,51.80
2023-02-20T23:59:48.686Z,50.99
